Time;durP1;ratioP1;P1;durP2;ratioP2;P2;SDS_P1;SDS_P2;PMS_P1;PMS_P2;Temp;Humidity;BMP_temperature;BMP_pressure;BME280_temperature;BME280_humidity;BME280_pressure;Samples;Min_cycle;Max_cycle;Signal;HPM_P1;HPM_P2
2023/03/09 00:01:42;;;;;;;7.90;3.87;;;;;;;9.37;59.14;100886.67;1869295;76;21030;-47
2023/03/09 00:04:16;;;;;;;9.85;4.75;;;;;;;9.41;59.02;100882.60;1890153;76;21022;-46
2023/03/09 00:06:45;;;;;;;6.40;3.25;;;;;;;9.43;58.91;100874.67;1847365;78;21447;-47
2023/03/09 00:09:15;;;;;;;7.35;4.40;;;;;;;9.47;59.06;100875.82;1847160;78;21451;-46
2023/03/09 00:11:46;;;;;;;7.03;3.98;;;;;;;9.52;59.06;100873.52;1846453;78;21491;-45
2023/03/09 00:14:16;;;;;;;7.35;3.90;;;;;;;9.58;59.24;100880.73;1847163;78;21111;-46
2023/03/09 00:16:45;;;;;;;8.28;4.25;;;;;;;9.61;59.06;100879.80;1844591;78;21048;-46
2023/03/09 00:19:20;;;;;;;9.65;4.80;;;;;;;9.61;58.91;100885.05;1847109;78;21048;-46
2023/03/09 00:21:49;;;;;;;7.70;4.20;;;;;;;9.62;58.87;100886.29;1847654;76;21032;-45
2023/03/09 00:24:17;;;;;;;14.87;4.08;;;;;;;9.63;58.84;100889.80;1847568;76;21060;-46
2023/03/09 00:26:51;;;;;;;9.95;3.92;;;;;;;9.63;58.86;100883.23;1844680;78;21040;-46
2023/03/09 00:29:22;;;;;;;5.67;3.80;;;;;;;9.60;58.89;100884.17;1846969;77;21143;-45
2023/03/09 00:31:52;;;;;;;7.92;3.60;;;;;;;9.63;59.20;100885.39;1847172;78;21555;-46
2023/03/09 00:34:21;;;;;;;7.33;3.12;;;;;;;9.70;59.56;100878.61;1847234;78;21449;-47
2023/03/09 00:36:50;;;;;;;11.57;4.20;;;;;;;9.74;59.82;100881.53;1831843;78;21513;-48
2023/03/09 00:39:19;;;;;;;5.60;3.40;;;;;;;9.77;59.84;100867.83;1810502;79;21056;-49
2023/03/09 00:41:48;;;;;;;6.67;2.45;;;;;;;9.80;59.89;100873.46;1813315;78;21089;-48
2023/03/09 00:44:17;;;;;;;10.78;3.77;;;;;;;9.84;60.69;100875.07;1847110;78;21097;-48
2023/03/09 00:46:45;;;;;;;7.83;3.37;;;;;;;9.91;61.29;100871.32;1844595;78;21019;-47
2023/03/09 00:49:16;;;;;;;5.47;2.83;;;;;;;9.95;61.14;100875.56;1844524;78;21601;-46
2023/03/09 00:51:45;;;;;;;6.53;2.80;;;;;;;10.01;61.54;100879.75;1847167;77;21154;-45
2023/03/09 00:54:15;;;;;;;5.55;3.40;;;;;;;10.05;61.48;100874.34;1846738;78;21100;-49
2023/03/09 00:56:44;;;;;;;10.50;3.77;;;;;;;10.04;61.51;100872.61;1800740;77;21050;-48
2023/03/09 00:59:12;;;;;;;9.20;3.22;;;;;;;10.03;61.52;100873.97;1799637;80;21058;-49
2023/03/09 01:01:41;;;;;;;6.47;3.02;;;;;;;9.99;61.75;100858.75;1799661;80;21118;-48
2023/03/09 01:04:10;;;;;;;5.37;2.87;;;;;;;9.96;62.00;100852.73;1799605;80;21148;-49
2023/03/09 01:06:39;;;;;;;6.50;2.98;;;;;;;9.94;62.21;100856.77;1802753;78;21469;-52
2023/03/09 01:09:09;;;;;;;7.55;3.17;;;;;;;9.93;62.37;100853.72;1799676;80;21069;-47
2023/03/09 01:11:38;;;;;;;9.18;3.80;;;;;;;9.90;62.60;100853.80;1799692;80;21074;-48
2023/03/09 01:14:07;;;;;;;5.90;2.45;;;;;;;9.89;62.50;100852.11;1799651;80;21093;-47
2023/03/09 01:16:35;;;;;;;9.23;3.75;;;;;;;9.87;62.44;100859.20;1802840;78;21136;-48
2023/03/09 01:19:04;;;;;;;6.60;3.30;;;;;;;9.86;62.75;100854.83;1799692;80;21066;-49
2023/03/09 01:21:33;;;;;;;8.08;3.30;;;;;;;9.83;63.22;100857.13;1799507;80;21658;-48
2023/03/09 01:24:02;;;;;;;5.08;3.10;;;;;;;9.83;63.75;100865.45;1799701;80;21042;-48
2023/03/09 01:26:30;;;;;;;9.20;3.62;;;;;;;9.82;63.82;100858.48;1802766;78;21054;-49
2023/03/09 01:29:01;;;;;;;10.93;4.10;;;;;;;9.81;64.32;100858.95;1799678;80;21053;-50
2023/03/09 01:31:29;;;;;;;7.40;3.58;;;;;;;9.81;64.03;100860.70;1799647;80;21034;-48
2023/03/09 01:33:58;;;;;;;7.75;3.47;;;;;;;9.81;64.14;100863.33;1799480;80;21602;-48
2023/03/09 01:36:27;;;;;;;10.40;3.47;;;;;;;9.79;64.23;100860.78;1799738;80;21199;-48
2023/03/09 01:38:56;;;;;;;5.78;2.42;;;;;;;9.77;64.42;100861.72;1843639;78;21109;-48
2023/03/09 01:41:26;;;;;;;6.10;2.25;;;;;;;9.73;64.16;100871.95;1846962;76;21095;-48
2023/03/09 01:43:55;;;;;;;6.05;2.80;;;;;;;9.73;64.26;100871.95;1846934;78;21048;-51
2023/03/09 01:46:26;;;;;;;4.70;2.95;;;;;;;9.72;64.58;100875.47;1846771;77;21122;-46
2023/03/09 01:49:31;;;;;;;7.67;4.62;;;;;;;9.72;64.65;100872.84;1843466;78;21126;-47
2023/03/09 01:52:14;;;;;;;6.45;3.08;;;;;;;9.71;64.82;100870.67;1846852;77;21056;-46
2023/03/09 01:54:58;;;;;;;6.85;3.65;;;;;;;9.74;65.29;100869.70;1845927;78;21100;-48
2023/03/09 01:57:36;;;;;;;7.25;3.55;;;;;;;9.77;65.82;100872.23;1799631;80;21063;-50
2023/03/09 02:00:11;;;;;;;13.00;3.95;;;;;;;9.77;65.77;100870.92;1799634;80;21050;-48
2023/03/09 02:03:00;;;;;;;5.53;2.95;;;;;;;9.78;66.10;100871.34;1799973;77;21101;-52
2023/03/09 02:05:34;;;;;;;6.65;3.05;;;;;;;9.77;65.93;100865.20;1802751;78;21079;-50
2023/03/09 02:08:05;;;;;;;4.85;2.70;;;;;;;9.75;65.77;100855.66;1798033;78;21536;-48
2023/03/09 02:10:37;;;;;;;7.60;3.33;;;;;;;9.73;65.65;100858.80;1799619;80;21018;-50
2023/03/09 02:13:11;;;;;;;7.55;3.75;;;;;;;9.69;65.67;100858.50;1799695;80;21046;-52
2023/03/09 02:15:41;;;;;;;8.73;4.25;;;;;;;9.63;65.62;100863.05;1799676;78;21054;-55
2023/03/09 02:18:10;;;;;;;7.67;3.75;;;;;;;9.54;65.91;100859.41;1801157;78;21516;-50
2023/03/09 02:21:01;;;;;;;7.45;3.58;;;;;;;9.47;65.91;100862.68;1799506;80;21066;-49
2023/03/09 02:23:39;;;;;;;9.03;4.15;;;;;;;9.43;65.96;100866.78;1799638;79;21042;-52
2023/03/09 02:26:13;;;;;;;8.10;3.72;;;;;;;9.37;66.02;100867.84;1800310;78;21109;-49
2023/03/09 02:28:42;;;;;;;7.40;3.87;;;;;;;9.30;65.88;100865.47;1816661;77;21141;-50
2023/03/09 02:31:14;;;;;;;8.33;4.55;;;;;;;9.26;66.15;100873.90;1816689;79;21588;-50
2023/03/09 02:33:43;;;;;;;11.55;4.45;;;;;;;9.20;66.34;100872.33;1846736;78;21130;-47
2023/03/09 02:36:12;;;;;;;7.42;3.50;;;;;;;9.16;66.22;100865.42;1847141;78;21092;-48
2023/03/09 02:38:41;;;;;;;8.30;3.20;;;;;;;9.17;66.34;100864.53;1808073;77;21623;-46
2023/03/09 02:41:13;;;;;;;8.20;3.30;;;;;;;9.18;66.21;100870.17;1799513;79;21426;-46
2023/03/09 02:43:45;;;;;;;7.05;3.17;;;;;;;9.19;66.17;100874.53;1799644;80;21513;-47
2023/03/09 02:46:14;;;;;;;6.33;3.10;;;;;;;9.19;66.52;100872.37;1799621;80;21175;-48
2023/03/09 02:48:43;;;;;;;6.00;2.90;;;;;;;9.19;66.33;100877.16;1803215;78;21556;-50
2023/03/09 02:51:11;;;;;;;6.10;3.22;;;;;;;9.20;66.46;100869.70;1799600;80;21473;-50
2023/03/09 02:53:40;;;;;;;5.15;3.05;;;;;;;9.20;66.42;100867.07;1803433;79;21117;-54
2023/03/09 02:56:10;;;;;;;5.60;2.95;;;;;;;9.22;66.33;100870.50;1832169;77;21060;-55
2023/03/09 02:58:39;;;;;;;6.15;3.42;;;;;;;9.22;66.46;100869.19;1847160;78;21036;-55
2023/03/09 03:01:07;;;;;;;5.70;2.92;;;;;;;9.23;66.75;100877.92;1846987;78;21157;-50
2023/03/09 03:03:36;;;;;;;6.85;3.58;;;;;;;9.24;66.54;100869.11;1846930;77;21024;-48
2023/03/09 03:06:05;;;;;;;5.97;2.77;;;;;;;9.23;66.45;100877.46;1810511;78;21039;-48
2023/03/09 03:08:35;;;;;;;6.25;3.80;;;;;;;9.22;66.57;100878.81;1810599;79;21087;-48
2023/03/09 03:11:05;;;;;;;6.95;3.65;;;;;;;9.21;66.59;100877.97;1810392;79;21078;-51
2023/03/09 03:13:34;;;;;;;13.35;3.80;;;;;;;9.18;66.64;100878.05;1820978;78;21016;-50
2023/03/09 03:16:04;;;;;;;12.43;4.08;;;;;;;9.18;66.65;100882.45;1890669;76;21061;-48
2023/03/09 03:18:33;;;;;;;5.70;2.90;;;;;;;9.17;66.65;100876.35;1894316;76;21054;-49
2023/03/09 03:21:02;;;;;;;7.28;4.10;;;;;;;9.16;66.66;100877.24;1887649;76;21018;-47
2023/03/09 03:23:31;;;;;;;6.30;2.87;;;;;;;9.17;66.66;100878.98;1839322;76;21563;-46
2023/03/09 03:26:08;;;;;;;7.87;3.58;;;;;;;9.19;66.86;100879.78;1851438;76;21568;-50
2023/03/09 03:28:39;;;;;;;4.22;3.42;;;;;;;9.19;66.62;100882.41;1831016;76;21047;-49
2023/03/09 03:31:10;;;;;;;9.93;3.72;;;;;;;9.18;66.87;100879.83;1826472;77;21770;-46
2023/03/09 03:33:39;;;;;;;4.37;2.33;;;;;;;9.18;67.12;100882.45;1824791;78;21532;-45
2023/03/09 03:36:08;;;;;;;9.33;3.30;;;;;;;9.19;67.24;100892.07;1840602;78;21063;-45
2023/03/09 03:38:38;;;;;;;5.75;3.20;;;;;;;9.19;68.02;100888.13;1844787;78;21638;-46
2023/03/09 03:41:06;;;;;;;6.95;3.60;;;;;;;9.20;68.28;100880.20;1844211;76;21095;-53
2023/03/09 03:43:36;;;;;;;8.10;3.60;;;;;;;9.24;68.42;100888.39;1839212;76;21566;-46
2023/03/09 03:46:06;;;;;;;9.88;4.33;;;;;;;9.26;68.79;100880.00;1852611;75;21143;-44
2023/03/09 03:48:37;;;;;;;6.12;3.02;;;;;;;9.27;68.69;100881.70;1843798;77;21482;-47
2023/03/09 03:51:06;;;;;;;7.28;3.37;;;;;;;9.28;68.92;100876.88;1845233;76;21076;-45
2023/03/09 03:53:35;;;;;;;9.65;3.65;;;;;;;9.29;68.90;100873.78;1845048;76;21044;-44
2023/03/09 03:56:05;;;;;;;11.60;4.70;;;;;;;9.28;68.71;100877.34;1846730;78;21048;-45
2023/03/09 03:58:35;;;;;;;7.50;3.95;;;;;;;9.27;68.51;100880.86;1847228;78;21040;-46
2023/03/09 04:01:03;;;;;;;7.83;3.10;;;;;;;9.25;68.40;100878.27;1840933;76;21121;-49
2023/03/09 04:03:34;;;;;;;12.58;5.20;;;;;;;9.22;68.42;100874.45;1846056;78;21041;-47
2023/03/09 04:06:04;;;;;;;12.40;4.40;;;;;;;9.18;68.63;100878.05;1822430;78;21032;-46
2023/03/09 04:08:33;;;;;;;8.63;3.90;;;;;;;9.15;68.78;100886.05;1845426;78;21135;-47
2023/03/09 04:11:07;;;;;;;9.00;3.60;;;;;;;9.12;68.97;100891.39;1845356;78;21156;-47
2023/03/09 04:13:37;;;;;;;7.72;3.55;;;;;;;9.10;69.08;100882.70;1845529;78;21088;-47
2023/03/09 04:16:06;;;;;;;7.97;3.70;;;;;;;9.10;69.05;100884.02;1845485;78;21574;-48
2023/03/09 04:18:35;;;;;;;9.18;3.60;;;;;;;9.12;69.26;100889.22;1846039;77;21044;-47
2023/03/09 04:21:04;;;;;;;11.33;4.40;;;;;;;9.16;69.11;100886.44;1845445;77;21032;-45
2023/03/09 04:23:32;;;;;;;7.87;3.72;;;;;;;9.20;69.17;100887.20;1845480;78;21147;-45
2023/03/09 04:26:04;;;;;;;7.03;3.92;;;;;;;9.22;69.19;100877.08;1846535;78;21538;-48
2023/03/09 04:28:45;;;;;;;12.88;3.15;;;;;;;9.28;69.34;100883.44;1848241;76;21547;-46
2023/03/09 04:31:15;;;;;;;8.25;4.25;;;;;;;9.35;69.26;100887.17;1847267;76;21224;-46
2023/03/09 04:33:44;;;;;;;10.60;3.92;;;;;;;9.42;69.19;100885.62;1847605;76;21526;-46
2023/03/09 04:36:15;;;;;;;10.08;4.15;;;;;;;9.49;69.21;100892.86;1861786;76;21106;-50
2023/03/09 04:38:45;;;;;;;11.25;4.70;;;;;;;9.57;69.35;100892.61;1871490;76;21075;-47
2023/03/09 04:41:14;;;;;;;4.60;2.87;;;;;;;9.64;69.29;100891.04;1854704;77;21084;-47
2023/03/09 04:43:44;;;;;;;9.58;4.42;;;;;;;9.73;69.93;100891.66;1853915;77;21630;-45
2023/03/09 04:46:13;;;;;;;8.78;3.65;;;;;;;9.75;69.83;100885.89;1854759;77;21071;-46
2023/03/09 04:48:42;;;;;;;8.68;2.80;;;;;;;9.78;69.67;100885.80;1854673;77;21582;-46
2023/03/09 04:51:10;;;;;;;7.72;2.87;;;;;;;9.81;69.64;100879.98;1854512;77;21079;-47
2023/03/09 04:53:40;;;;;;;7.03;3.33;;;;;;;9.85;69.65;100886.86;1854596;77;21064;-47
2023/03/09 04:56:09;;;;;;;10.35;3.98;;;;;;;9.91;69.72;100883.63;1845133;77;21127;-47
2023/03/09 04:58:39;;;;;;;6.28;3.87;;;;;;;9.95;69.55;100882.60;1853186;77;21132;-46
2023/03/09 05:01:08;;;;;;;9.88;4.78;;;;;;;9.98;69.53;100875.47;1854555;77;21080;-45
2023/03/09 05:03:37;;;;;;;5.80;3.77;;;;;;;10.00;69.51;100874.95;1854560;77;21095;-46
2023/03/09 05:06:07;;;;;;;13.62;4.03;;;;;;;10.05;69.39;100872.14;1854538;77;21554;-48
2023/03/09 05:08:37;;;;;;;4.85;2.55;;;;;;;10.09;69.42;100870.27;1855123;77;21019;-47
2023/03/09 05:11:07;;;;;;;5.95;4.08;;;;;;;10.10;69.45;100869.37;1854603;76;21114;-46
2023/03/09 05:13:36;;;;;;;7.95;3.37;;;;;;;10.14;69.46;100871.83;1854615;77;21544;-47
2023/03/09 05:16:08;;;;;;;7.00;4.10;;;;;;;10.23;69.27;100870.19;1854790;76;21204;-47
2023/03/09 05:18:38;;;;;;;6.83;3.77;;;;;;;10.65;69.21;100864.77;1854996;76;21110;-46
2023/03/09 05:21:09;;;;;;;10.65;3.50;;;;;;;10.84;68.82;100860.13;1854360;77;21156;-46
2023/03/09 05:23:39;;;;;;;9.68;4.70;;;;;;;11.00;68.51;100861.26;1880869;75;21070;-45
2023/03/09 05:26:08;;;;;;;12.00;3.52;;;;;;;11.41;68.26;100858.75;1850842;76;21678;-46
2023/03/09 05:28:40;;;;;;;7.60;3.75;;;;;;;12.24;68.28;100855.74;1863829;76;21124;-46
2023/03/09 05:31:11;;;;;;;9.68;3.30;;;;;;;13.05;67.10;100857.77;1894129;76;21045;-46
2023/03/09 05:33:40;;;;;;;9.13;4.00;;;;;;;13.20;65.76;100853.53;1894068;76;21093;-47
2023/03/09 05:36:18;;;;;;;7.95;3.35;;;;;;;12.90;65.15;100867.28;1875942;76;21056;-46
2023/03/09 05:38:47;;;;;;;8.75;4.05;;;;;;;12.63;65.04;100862.33;1863620;76;21006;-46
2023/03/09 05:41:17;;;;;;;9.25;4.20;;;;;;;12.52;65.01;100865.92;1884198;76;21462;-45
2023/03/09 05:43:46;;;;;;;8.35;3.67;;;;;;;12.35;64.83;100858.29;1888210;76;21142;-45
2023/03/09 05:46:17;;;;;;;7.87;3.00;;;;;;;12.19;64.83;100858.60;1849307;77;21588;-45
2023/03/09 05:48:48;;;;;;;6.83;2.75;;;;;;;12.08;64.92;100859.06;1849588;77;21042;-45
2023/03/09 05:51:17;;;;;;;5.90;3.27;;;;;;;12.03;65.07;100854.44;1853765;77;21046;-47
2023/03/09 05:53:47;;;;;;;6.58;2.80;;;;;;;12.08;65.11;100858.19;1856311;76;21528;-47
2023/03/09 05:56:15;;;;;;;4.00;2.15;;;;;;;12.17;64.92;100856.47;1859243;76;21103;-44
2023/03/09 05:58:46;;;;;;;5.78;2.42;;;;;;;12.49;64.82;100865.61;1836125;78;21534;-47
2023/03/09 06:01:22;;;;;;;7.60;3.45;;;;;;;13.35;64.70;100859.90;1835822;77;21090;-46
2023/03/09 06:03:53;;;;;;;4.87;3.12;;;;;;;13.85;64.00;100853.87;1836163;77;21098;-46
2023/03/09 06:06:23;;;;;;;9.75;3.15;;;;;;;14.00;63.38;100865.47;1836273;77;21121;-45
2023/03/09 06:08:52;;;;;;;5.65;2.67;;;;;;;13.89;62.36;100853.66;1836209;78;21192;-44
2023/03/09 06:11:21;;;;;;;6.12;2.17;;;;;;;13.75;61.76;100857.46;1825987;78;21066;-43
2023/03/09 06:13:54;;;;;;;6.00;2.60;;;;;;;13.53;61.25;100851.53;1805962;79;21140;-42
2023/03/09 06:16:26;;;;;;;4.70;2.37;;;;;;;13.37;61.43;100850.98;1813422;78;21461;-45
2023/03/09 06:18:58;;;;;;;4.37;2.27;;;;;;;13.57;61.42;100849.12;1836321;77;21091;-45
2023/03/09 06:21:27;;;;;;;7.08;1.98;;;;;;;14.43;61.40;100850.00;1835668;77;21142;-47
2023/03/09 06:23:57;;;;;;;4.37;2.12;;;;;;;15.48;59.74;100850.87;1819766;77;21132;-44
2023/03/09 06:26:27;;;;;;;3.75;2.35;;;;;;;16.30;55.88;100850.89;1802764;79;21054;-46
2023/03/09 06:28:57;;;;;;;4.67;2.10;;;;;;;16.91;54.75;100849.76;1801807;79;21110;-45
2023/03/09 06:31:26;;;;;;;3.85;2.20;;;;;;;17.56;53.37;100851.72;1802711;79;21101;-47
2023/03/09 06:33:57;;;;;;;7.00;2.10;;;;;;;18.05;49.84;100853.38;1817775;78;21573;-47
2023/03/09 06:36:26;;;;;;;2.60;1.82;;;;;;;18.34;48.50;100850.03;1834866;78;21479;-50
2023/03/09 06:38:56;;;;;;;2.10;1.55;;;;;;;18.75;46.54;100854.73;1835370;78;21518;-48
2023/03/09 06:41:31;;;;;;;4.28;1.98;;;;;;;18.57;45.92;100855.06;1834080;78;21111;-44
2023/03/09 06:43:57;;;;;;;5.58;2.15;;;;;;;18.25;45.90;100861.34;1814363;78;21093;-47
2023/03/09 06:46:26;;;;;;;6.28;2.72;;;;;;;18.84;45.77;100861.62;1806069;79;21085;-46
2023/03/09 06:48:55;;;;;;;3.95;1.77;;;;;;;19.18;44.26;100852.52;1806068;79;21584;-46
2023/03/09 06:51:24;;;;;;;3.05;1.80;;;;;;;19.55;43.61;100849.78;1806317;78;21571;-46
2023/03/09 06:53:54;;;;;;;3.55;2.15;;;;;;;19.94;42.99;100845.07;1814112;76;21505;-46
2023/03/09 06:56:24;;;;;;;2.62;1.60;;;;;;;20.28;41.80;100857.64;1876177;75;21186;-46
2023/03/09 06:58:56;;;;;;;2.55;1.82;;;;;;;20.69;40.95;100853.05;1884944;76;21088;-47
2023/03/09 07:01:24;;;;;;;5.17;2.42;;;;;;;20.96;40.45;100859.84;1852142;76;21653;-46
2023/03/09 07:03:54;;;;;;;4.95;2.33;;;;;;;21.27;39.39;100840.78;1849850;77;21515;-46
2023/03/09 07:06:22;;;;;;;8.70;2.30;;;;;;;21.48;38.56;100856.08;1849910;77;21110;-45
2023/03/09 07:08:51;;;;;;;4.87;2.02;;;;;;;21.42;37.62;100852.05;1849874;77;21091;-45
2023/03/09 07:11:20;;;;;;;2.87;1.90;;;;;;;21.73;37.83;100861.09;1848639;76;21032;-45
2023/03/09 07:13:49;;;;;;;3.10;2.30;;;;;;;22.21;36.58;100857.53;1832354;76;21007;-45
2023/03/09 07:16:17;;;;;;;4.92;3.50;;;;;;;22.29;35.90;100845.16;1819616;79;21031;-45
2023/03/09 07:18:46;;;;;;;6.22;2.77;;;;;;;22.23;35.90;100863.61;1831351;78;21012;-46
2023/03/09 07:21:14;;;;;;;4.15;2.15;;;;;;;22.29;35.71;100859.92;1848492;77;21076;-46
2023/03/09 07:23:44;;;;;;;6.20;2.55;;;;;;;22.20;35.68;100839.23;1848392;78;21523;-47
2023/03/09 07:26:13;;;;;;;4.97;2.40;;;;;;;22.34;35.55;100863.05;1848375;78;21491;-46
2023/03/09 07:28:41;;;;;;;3.58;2.60;;;;;;;22.11;35.47;100854.30;1848433;78;21174;-47
2023/03/09 07:31:13;;;;;;;5.70;2.92;;;;;;;22.28;35.12;100845.30;1865053;76;21012;-45
2023/03/09 07:33:42;;;;;;;6.47;3.60;;;;;;;22.28;35.22;100864.94;1857497;76;21161;-46
2023/03/09 07:36:11;;;;;;;7.58;2.30;;;;;;;22.26;34.53;100860.20;1840714;77;21053;-45
2023/03/09 07:38:39;;;;;;;4.72;2.12;;;;;;;22.24;34.81;100862.11;1841903;77;21113;-46
2023/03/09 07:41:08;;;;;;;3.90;2.12;;;;;;;22.14;35.06;100853.17;1841089;77;21141;-46
2023/03/09 07:43:43;;;;;;;8.60;2.52;;;;;;;22.29;34.76;100845.16;1843048;76;21086;-49
2023/03/09 07:46:08;;;;;;;3.15;2.20;;;;;;;22.53;34.77;100852.06;1842594;76;21067;-45
2023/03/09 07:48:42;;;;;;;11.75;6.03;;;;;;;22.80;34.16;100835.86;1843328;78;21140;-45
2023/03/09 07:51:08;;;;;;;5.55;3.17;;;;;;;23.19;34.14;100854.26;1843127;77;21067;-45
2023/03/09 07:53:39;;;;;;;4.72;2.02;;;;;;;23.16;33.09;100837.57;1843489;78;21408;-45
2023/03/09 07:56:08;;;;;;;7.05;3.50;;;;;;;23.09;32.97;100843.52;1847524;77;21146;-47
2023/03/09 07:58:39;;;;;;;5.35;2.45;;;;;;;23.36;33.45;100835.25;1845937;77;21597;-47
2023/03/09 08:01:11;;;;;;;6.10;3.00;;;;;;;24.00;32.58;100849.95;1845762;78;21569;-46
2023/03/09 08:03:39;;;;;;;3.98;2.37;;;;;;;22.78;32.59;100844.51;1846859;76;21080;-45
2023/03/09 08:06:09;;;;;;;2.17;1.72;;;;;;;22.21;33.57;100849.48;1846829;78;21435;-46
2023/03/09 08:08:39;;;;;;;3.05;2.70;;;;;;;22.67;33.78;100840.13;1847793;76;21033;-47
2023/03/09 08:11:08;;;;;;;2.35;2.15;;;;;;;22.87;33.44;100835.16;1843498;76;21042;-45
2023/03/09 08:13:37;;;;;;;5.78;1.70;;;;;;;22.13;33.81;100855.48;1874166;76;21569;-46
2023/03/09 08:16:09;;;;;;;4.83;2.83;;;;;;;21.72;34.51;100829.89;1833776;76;21082;-47
2023/03/09 08:18:37;;;;;;;4.87;2.50;;;;;;;20.86;35.78;100838.34;1809860;78;21102;-45
2023/03/09 08:21:09;;;;;;;5.08;2.30;;;;;;;20.43;36.65;100831.02;1822651;78;21177;-50
2023/03/09 08:23:39;;;;;;;2.80;2.05;;;;;;;20.69;36.43;100823.62;1809318;78;21042;-51
2023/03/09 08:26:11;;;;;;;4.92;2.08;;;;;;;21.30;35.74;100835.66;1820483;76;21046;-49
2023/03/09 08:28:40;;;;;;;7.97;2.17;;;;;;;21.79;34.87;100834.25;1814254;78;21585;-50
2023/03/09 08:31:15;;;;;;;4.67;2.00;;;;;;;22.58;34.35;100852.51;1818659;76;21478;-46
2023/03/09 08:33:45;;;;;;;5.55;2.25;;;;;;;23.30;33.08;100825.08;1867693;76;21120;-45
2023/03/09 08:36:16;;;;;;;5.62;2.45;;;;;;;23.74;32.93;100832.21;1833850;76;21581;-45
2023/03/09 08:38:46;;;;;;;3.02;2.10;;;;;;;24.36;31.94;100831.80;1834541;78;21221;-48
2023/03/09 08:41:15;;;;;;;4.60;2.15;;;;;;;24.50;31.50;100838.55;1827193;78;21586;-47
2023/03/09 08:43:44;;;;;;;3.95;1.60;;;;;;;24.44;31.43;100826.03;1823228;78;21499;-47
2023/03/09 08:46:12;;;;;;;5.08;2.17;;;;;;;24.89;30.79;100828.45;1815399;76;21066;-51
2023/03/09 08:48:41;;;;;;;3.27;1.30;;;;;;;24.86;30.54;100828.74;1818308;78;21174;-53
2023/03/09 08:51:11;;;;;;;4.65;1.80;;;;;;;24.80;30.07;100828.02;1820930;78;21188;-47
2023/03/09 08:53:40;;;;;;;2.65;1.75;;;;;;;24.06;30.40;100834.57;1834375;78;21048;-51
2023/03/09 08:56:11;;;;;;;3.20;1.87;;;;;;;23.87;30.64;100823.37;1811607;78;21625;-48
2023/03/09 08:58:40;;;;;;;2.25;1.45;;;;;;;23.91;30.86;100827.13;1831363;76;21654;-47
2023/03/09 09:01:10;;;;;;;5.83;2.70;;;;;;;23.22;31.64;100818.20;1820946;78;21066;-48
2023/03/09 09:03:39;;;;;;;3.37;1.67;;;;;;;22.79;32.21;100825.59;1846125;78;21111;-47
2023/03/09 09:06:11;;;;;;;7.72;2.80;;;;;;;22.10;32.87;100827.11;1824064;78;21052;-51
2023/03/09 09:08:40;;;;;;;5.90;1.70;;;;;;;22.71;32.58;100799.44;1834825;78;21150;-47
2023/03/09 09:11:14;;;;;;;3.00;1.90;;;;;;;23.32;31.88;100793.55;1814627;78;21764;-47
2023/03/09 09:13:43;;;;;;;3.98;1.75;;;;;;;23.54;31.12;100815.25;1820635;78;21397;-47
2023/03/09 09:16:13;;;;;;;5.58;2.20;;;;;;;23.22;31.60;100811.48;1825185;78;21123;-47
2023/03/09 09:18:41;;;;;;;3.45;1.80;;;;;;;23.42;31.37;100793.53;1856759;76;21047;-47
2023/03/09 09:21:13;;;;;;;5.45;2.35;;;;;;;23.56;31.37;100804.36;1816410;78;21205;-47
2023/03/09 09:23:44;;;;;;;3.58;2.02;;;;;;;23.91;30.85;100772.00;1820062;78;21627;-50
2023/03/09 09:26:14;;;;;;;4.08;1.98;;;;;;;24.00;31.02;100803.40;1831527;78;21174;-48
2023/03/09 09:28:44;;;;;;;4.90;1.95;;;;;;;24.12;30.71;100792.80;1824924;76;21140;-48
2023/03/09 09:31:16;;;;;;;4.28;2.10;;;;;;;24.22;30.72;100793.63;1835167;76;21062;-46
2023/03/09 09:33:45;;;;;;;4.77;2.23;;;;;;;24.66;30.87;100785.80;1821230;78;21201;-46
2023/03/09 09:36:18;;;;;;;5.22;2.50;;;;;;;24.87;30.59;100776.59;1818392;76;21175;-46
2023/03/09 09:38:47;;;;;;;3.72;2.42;;;;;;;25.14;30.30;100778.86;1825699;78;21522;-50
2023/03/09 09:41:22;;;;;;;5.83;2.27;;;;;;;25.31;29.80;100795.58;1833054;78;21571;-45
2023/03/09 09:43:53;;;;;;;5.35;2.00;;;;;;;25.13;29.62;100773.98;1831443;76;21619;-49
2023/03/09 09:46:23;;;;;;;3.75;1.60;;;;;;;25.68;29.97;100778.35;1830115;78;21706;-44
2023/03/09 09:48:51;;;;;;;5.87;2.50;;;;;;;25.62;28.91;100770.91;1822901;78;21083;-45
2023/03/09 09:51:41;;;;;;;6.70;2.25;;;;;;;25.28;29.93;100778.36;1816822;78;21034;-44
2023/03/09 09:54:27;;;;;;;3.77;1.77;;;;;;;25.34;29.71;100768.80;1817848;78;21121;-48
2023/03/09 09:57:02;;;;;;;5.45;3.05;;;;;;;25.45;29.27;100777.16;1803234;77;21243;-46
2023/03/09 09:59:36;;;;;;;6.75;2.30;;;;;;;25.46;29.58;100759.99;1821137;77;21143;-44
2023/03/09 10:02:10;;;;;;;4.03;2.02;;;;;;;25.09;29.29;100777.99;1831089;76;21033;-47
2023/03/09 10:04:47;;;;;;;3.80;2.52;;;;;;;24.51;29.77;100765.71;1831973;76;21621;-55
2023/03/09 10:07:18;;;;;;;4.72;2.17;;;;;;;24.13;30.23;100766.26;1837270;77;21714;-50
2023/03/09 10:09:56;;;;;;;5.05;2.02;;;;;;;23.67;30.51;100766.58;1823058;77;21123;-42
2023/03/09 10:12:24;;;;;;;3.90;2.37;;;;;;;23.07;31.12;100787.75;1834403;76;21110;-44
2023/03/09 10:15:08;;;;;;;3.25;1.87;;;;;;;22.45;31.66;100780.80;1828063;76;21115;-49
2023/03/09 10:17:40;;;;;;;4.55;2.65;;;;;;;22.22;32.19;100782.28;1802584;80;21579;-44
2023/03/09 10:20:14;;;;;;;2.92;2.25;;;;;;;21.83;32.29;100775.38;1802520;79;21034;-44
2023/03/09 10:22:46;;;;;;;5.75;2.47;;;;;;;21.60;32.47;100751.91;1803599;78;21512;-45
2023/03/09 10:25:16;;;;;;;3.35;2.35;;;;;;;21.12;33.05;100779.14;1838087;77;21040;-45
2023/03/09 10:27:57;;;;;;;3.20;2.00;;;;;;;20.78;33.39;100772.03;1849922;77;21854;-45
2023/03/09 10:30:43;;;;;;;5.20;2.30;;;;;;;20.29;34.03;100789.34;1850068;76;21043;-44
2023/03/09 10:33:18;;;;;;;3.75;2.45;;;;;;;19.90;34.65;100781.28;1850091;76;21056;-45
2023/03/09 10:35:58;;;;;;;5.25;2.55;;;;;;;19.83;34.73;100753.71;1865455;76;21515;-45
2023/03/09 10:38:27;;;;;;;4.65;2.40;;;;;;;19.59;35.25;100776.45;1881784;76;21134;-46
2023/03/09 10:40:57;;;;;;;5.40;3.00;;;;;;;19.91;35.33;100770.97;1881669;76;21122;-45
2023/03/09 10:43:32;;;;;;;5.30;3.45;;;;;;;20.53;34.97;100775.84;1881684;76;21122;-45
2023/03/09 10:46:21;;;;;;;3.75;2.00;;;;;;;21.03;33.97;100776.73;1861804;76;21044;-45
2023/03/09 10:48:52;;;;;;;4.10;2.52;;;;;;;20.86;33.62;100767.88;1849906;77;21503;-45
2023/03/09 10:51:33;;;;;;;5.45;2.90;;;;;;;20.48;33.75;100771.83;1852282;76;21518;-45
2023/03/09 10:54:25;;;;;;;4.28;2.40;;;;;;;20.48;34.10;100766.48;1855183;76;21130;-44
2023/03/09 10:56:54;;;;;;;3.15;1.55;;;;;;;20.55;33.95;100773.89;1824169;76;21669;-45
2023/03/09 10:59:24;;;;;;;6.58;2.05;;;;;;;20.56;33.84;100770.71;1804197;79;21070;-45
2023/03/09 11:02:01;;;;;;;4.72;2.37;;;;;;;20.90;33.07;100770.70;1810512;79;21632;-44
2023/03/09 11:04:34;;;;;;;3.05;1.90;;;;;;;20.73;33.28;100767.57;1809729;78;21513;-44
2023/03/09 11:07:06;;;;;;;3.60;1.98;;;;;;;20.30;33.46;100772.81;1831298;78;21068;-45
2023/03/09 11:09:38;;;;;;;3.35;1.90;;;;;;;19.83;33.83;100763.56;1847323;78;21627;-46
2023/03/09 11:12:31;;;;;;;4.33;2.33;;;;;;;20.00;34.13;100771.09;1821547;76;21129;-46
2023/03/09 11:15:02;;;;;;;4.67;2.58;;;;;;;20.19;33.68;100762.96;1810841;78;21141;-45
2023/03/09 11:17:42;;;;;;;8.00;3.75;;;;;;;19.92;33.63;100761.97;1832134;78;21043;-46
2023/03/09 11:20:19;;;;;;;3.85;2.60;;;;;;;19.46;33.68;100761.02;1847056;76;21455;-46
2023/03/09 11:23:24;;;;;;;3.87;2.60;;;;;;;18.72;34.61;100746.47;1847347;78;21142;-46
2023/03/09 11:26:00;;;;;;;3.47;2.45;;;;;;;18.36;35.28;100750.81;1847185;78;21138;-45
2023/03/09 11:28:41;;;;;;;3.50;2.12;;;;;;;17.86;36.03;100747.25;1844527;78;21044;-41
2023/03/09 11:31:12;;;;;;;3.75;2.35;;;;;;;17.57;36.78;100772.70;1847260;76;21052;-46
2023/03/09 11:33:42;;;;;;;4.58;2.22;;;;;;;17.28;37.37;100751.58;1846466;76;21056;-45
2023/03/09 11:36:16;;;;;;;5.53;2.25;;;;;;;17.18;37.69;100746.00;1847247;78;21495;-46
2023/03/09 11:38:47;;;;;;;5.50;2.60;;;;;;;17.10;37.86;100757.64;1844521;78;21590;-46
2023/03/09 11:41:21;;;;;;;4.15;2.95;;;;;;;17.06;38.10;100746.83;1847014;78;21040;-45
2023/03/09 11:43:53;;;;;;;3.65;2.17;;;;;;;17.11;38.19;100734.05;1847108;78;21117;-45
2023/03/09 11:46:23;;;;;;;4.40;2.45;;;;;;;17.11;38.09;100753.16;1846914;77;21012;-47